Dades meteomassalio
Diari Summary for Setembre 6, 2017 Units:  Metric    English   Both
« Previous Day
Next Day »
Diari Semanal Mensual Anual Personalitzat
  Maxima: Minima: Mijana:
Temperatura: -17.8 °C -9.4 °C -5.3 °C
Rosada: -17.8 °C -12.4 °C -10.4 °C
Humitat: Humidity % 39 % 58 %
Velocitat del vent: 0 km/h 0 km/h 24.5 km/h
Racha vent: 0 km/h - -
Vent:- - SW
Pressio: 0 hPa 34533.8 hPa -
Pluja: 0 mm    
Historical Graphs
 
 
Tabular Data for Setembre 6, 2017
Time Temperature Dew Point Pressure Wind Wind Speed Wind Gust Humidity Rainfall Rate (Hourly) solar Conditions
-17.8 °C -17.8 °C 0 hPa Calm     Humidity % 0 mm SolarRadiationWatts/m^2 W/m2 Conditions
00:01 -7.3 °C -9.8 °C 34625.2 hPa Calm     75 % 0 mm 0.0 W/m2 CLR
00:06 -7.3 °C -9.7 °C 34625.2 hPa Calm     76 % 0 mm 0.0 W/m2 CLR
00:11 -7.3 °C -9.7 °C 34625.2 hPa Calm     76 % 0 mm 0.0 W/m2 CLR
00:16 -7.3 °C -9.7 °C 34625.2 hPa Calm     76 % 0 mm 0.0 W/m2 CLR
00:21 -7.6 °C -9.9 °C 34611.7 hPa Calm     77 % 0 mm 0.0 W/m2 CLR
00:26 -7.6 °C -9.9 °C 34625.2 hPa Calm     77 % 0 mm 0.0 W/m2 CLR
00:31 -7.6 °C -9.9 °C 34625.2 hPa Calm     77 % 0 mm 0.0 W/m2 CLR
00:36 -7.6 °C -9.9 °C 34625.2 hPa Calm     77 % 0 mm 0.0 W/m2 CLR
00:41 -7.6 °C -9.8 °C 34611.7 hPa Calm     78 % 0 mm 0.0 W/m2 CLR
00:46 -7.6 °C -9.8 °C 34625.2 hPa Calm     78 % 0 mm 0.0 W/m2 CLR
00:51 -7.6 °C -9.7 °C 34625.2 hPa Calm     79 % 0 mm 0.0 W/m2 CLR
00:56 -7.6 °C -9.7 °C 34611.7 hPa Calm     79 % 0 mm 0.0 W/m2 CLR
01:01 -7.6 °C -9.7 °C 34611.7 hPa Calm     79 % 0 mm 0.0 W/m2 CLR
01:06 -7.6 °C -9.6 °C 34625.2 hPa Calm     80 % 0 mm 0.0 W/m2 CLR
01:11 -7.6 °C -9.6 °C 34625.2 hPa Calm     80 % 0 mm 0.0 W/m2 CLR
01:16 -7.6 °C -9.4 °C 34625.2 hPa Calm     81 % 0 mm 0.0 W/m2 CLR
01:21 -7.6 °C -9.4 °C 34625.2 hPa Calm     81 % 0 mm 0.0 W/m2 CLR
01:26 -7.3 °C -9.1 °C 34625.2 hPa Calm     81 % 0 mm 0.0 W/m2 CLR
01:31 -7.3 °C -9.1 °C 34635.4 hPa Calm     81 % 0 mm 0.0 W/m2 CLR
01:36 -7.3 °C -9.1 °C 34635.4 hPa Calm     82 % 0 mm 0.0 W/m2 CLR
01:46 -7.3 °C -9.8 °C 34635.4 hPa West 26.9 km/h 26.9 km/h 75 % 0 mm 0.0 W/m2 CLR
01:51 -7.3 °C -10.3 °C 34635.4 hPa WSW 17.9 km/h 17.9 km/h 71 % 0 mm 0.0 W/m2 CLR
01:56 -7.3 °C -10.4 °C 34635.4 hPa SSW 9 km/h 9 km/h 70 % 0 mm 0.0 W/m2 CLR
02:01 -7 °C -10.1 °C 34635.4 hPa Calm     70 % 0 mm 0.0 W/m2 CLR
02:06 -6.7 °C -9.9 °C 34635.4 hPa Calm     69 % 0 mm 0.0 W/m2 CLR
02:11 -6.7 °C -9.8 °C 34635.4 hPa Calm     70 % 0 mm 0.0 W/m2 CLR
02:16 -6.7 °C -9.8 °C 34635.4 hPa Calm     70 % 0 mm 0.0 W/m2 CLR
02:21 -6.3 °C -9.5 °C 34635.4 hPa Calm     70 % 0 mm 0.0 W/m2 CLR
02:26 -6.3 °C -9.4 °C 34635.4 hPa SW 10.3 km/h 10.3 km/h 71 % 0 mm 0.0 W/m2 CLR
02:31 -6.7 °C -9.7 °C 34645.6 hPa SW 15.6 km/h 15.6 km/h 71 % 0 mm 0.0 W/m2 CLR
02:36 -6.7 °C -9.7 °C 34645.6 hPa SSW 9 km/h 9 km/h 71 % 0 mm 0.0 W/m2 CLR
02:41 -7 °C -9.8 °C 34645.6 hPa Calm     72 % 0 mm 0.0 W/m2 CLR
02:46 -7 °C -9.8 °C 34645.6 hPa Calm     72 % 0 mm 0.0 W/m2 CLR
02:51 -7 °C -9.8 °C 34645.6 hPa SSW 9 km/h 9 km/h 72 % 0 mm 0.0 W/m2 CLR
02:56 -7.3 °C -10.2 °C 34645.6 hPa South 3.1 km/h   72 % 0 mm 0.0 W/m2 CLR
03:01 -7.6 °C -10.3 °C 34659.1 hPa Calm     73 % 0 mm 0.0 W/m2 CLR
03:06 -7.6 °C -10.3 °C 34659.1 hPa SSE 15 km/h   73 % 0 mm 0.0 W/m2 CLR
03:11 -7.6 °C -10.3 °C 34659.1 hPa SSW 26.9 km/h 26.9 km/h 73 % 0 mm 0.0 W/m2 CLR
03:17 -7.6 °C -10.4 °C 34659.1 hPa SSW 23.8 km/h 23.8 km/h 72 % 0 mm 0.0 W/m2 CLR
03:22 -7.3 °C -10.3 °C 34659.1 hPa South 18.2 km/h 18.2 km/h 71 % 0 mm 0.0 W/m2 CLR
03:27 -7 °C -10.1 °C 34659.1 hPa SSW 17.9 km/h 17.9 km/h 70 % 0 mm 0.0 W/m2 CLR
03:32 -7 °C -10.1 °C 34659.1 hPa SSW 17.9 km/h 17.9 km/h 70 % 0 mm 0.0 W/m2 CLR
03:37 -6.7 °C -9.9 °C 34659.1 hPa South 20.9 km/h 20.9 km/h 69 % 0 mm 0.0 W/m2 CLR
03:42 -6.7 °C -9.9 °C 34659.1 hPa SSW 17.9 km/h 17.9 km/h 69 % 0 mm 0.0 W/m2 CLR
03:47 -6.7 °C -9.9 °C 34659.1 hPa South 9 km/h 9 km/h 69 % 0 mm 0.0 W/m2 CLR
03:52 -6.7 °C -9.9 °C 34659.1 hPa South 9 km/h   69 % 0 mm 0.0 W/m2 CLR
03:57 -6.7 °C -10.1 °C 34669.3 hPa SSW 12.9 km/h 12.9 km/h 68 % 0 mm 0.0 W/m2 CLR
04:02 -7 °C -10.3 °C 34659.1 hPa South 20.9 km/h 20.9 km/h 68 % 0 mm 0.0 W/m2 CLR
04:07 -7 °C -10.3 °C 34659.1 hPa South 23.8 km/h 23.8 km/h 68 % 0 mm 0.0 W/m2 CLR
04:12 -6.7 °C -10.2 °C 34659.1 hPa SE 17.9 km/h 17.9 km/h 67 % 0 mm 0.0 W/m2 CLR
04:17 -7 °C -10.4 °C 34659.1 hPa SSW 15.6 km/h 15.6 km/h 67 % 0 mm 0.0 W/m2 CLR
04:22 -7 °C -10.4 °C 34659.1 hPa SSE 12.9 km/h 12.9 km/h 67 % 0 mm 0.0 W/m2 CLR
04:27 -7 °C -10.4 °C 34659.1 hPa South 11.9 km/h 11.9 km/h 67 % 0 mm 0.0 W/m2 CLR
04:32 -7.3 °C -10.8 °C 34659.1 hPa South 17.9 km/h 17.9 km/h 67 % 0 mm 0.0 W/m2 CLR
04:37 -7.3 °C -10.7 °C 34659.1 hPa SSE 12.9 km/h 12.9 km/h 68 % 0 mm 0.0 W/m2 CLR
04:42 -7.3 °C -10.7 °C 34659.1 hPa South 15 km/h 15 km/h 68 % 0 mm 0.0 W/m2 CLR
04:47 -7.3 °C -10.7 °C 34659.1 hPa SSE 15 km/h 15 km/h 68 % 0 mm 0.0 W/m2 CLR
04:52 -7.3 °C -10.7 °C 34659.1 hPa South 17.9 km/h 17.9 km/h 68 % 0 mm 0.0 W/m2 CLR
04:57 -7.3 °C -10.7 °C 34659.1 hPa South 15 km/h 15 km/h 68 % 0 mm 0.0 W/m2 CLR
05:02 -7.3 °C -10.7 °C 34659.1 hPa South 17.9 km/h 17.9 km/h 68 % 0 mm 0.0 W/m2 CLR
05:07 -7.3 °C -10.7 °C 34659.1 hPa SSW 18.2 km/h 18.2 km/h 68 % 0 mm 0.0 W/m2 CLR
05:12 -7.3 °C -10.8 °C 34659.1 hPa SSW 20.9 km/h 20.9 km/h 67 % 0 mm 0.0 W/m2 CLR
05:17 -7.3 °C -10.8 °C 34659.1 hPa South 18.2 km/h 18.2 km/h 67 % 0 mm 0.0 W/m2 CLR
05:22 -7.3 °C -10.8 °C 34659.1 hPa South 17.9 km/h 17.9 km/h 67 % 0 mm 0.0 W/m2 CLR
05:27 -7.3 °C -10.8 °C 34659.1 hPa Calm     67 % 0 mm 0.0 W/m2 CLR
05:32 -7.3 °C -10.8 °C 34659.1 hPa South 12.9 km/h 12.9 km/h 67 % 0 mm 0.0 W/m2 CLR
05:37 -7.3 °C -10.8 °C 34659.1 hPa SSW 10.3 km/h 10.3 km/h 67 % 0 mm 0.0 W/m2 CLR
05:42 -7.3 °C -10.8 °C 34659.1 hPa Calm     67 % 0 mm 0.0 W/m2 CLR
05:47 -7.6 °C -11.1 °C 34659.1 hPa South 6 km/h 6 km/h 67 % 0 mm 0.0 W/m2 CLR
05:52 -7.6 °C -11.1 °C 34659.1 hPa South 2.6 km/h 2.6 km/h 67 % 0 mm 0.0 W/m2 CLR
05:57 -7.6 °C -11.1 °C 34659.1 hPa SSE 20.9 km/h 20.9 km/h 67 % 0 mm 0.0 W/m2 CLR
06:02 -7.6 °C -11.1 °C 34659.1 hPa South 3.1 km/h   67 % 0 mm 0.0 W/m2 CLR
06:07 -7.6 °C -11.1 °C 34659.1 hPa South 17.9 km/h 17.9 km/h 67 % 0 mm 0.0 W/m2 CLR
06:12 -7.6 °C -11.1 °C 34659.1 hPa South 17.9 km/h 17.9 km/h 67 % 0 mm 0.0 W/m2 CLR
06:17 -7.6 °C -11.1 °C 34659.1 hPa SSE 17.9 km/h 17.9 km/h 67 % 0 mm 0.0 W/m2 CLR
06:22 -7.9 °C -11.3 °C 34669.3 hPa Calm     67 % 0 mm 0.0 W/m2 CLR
06:27 -7.9 °C -11.3 °C 34669.3 hPa SSW 6 km/h 6 km/h 67 % 0 mm 0.0 W/m2 CLR
06:32 -7.9 °C -11.2 °C 34669.3 hPa Calm     68 % 0 mm 0.0 W/m2 CLR
06:37 -7.9 °C -11.2 °C 34669.3 hPa Calm     68 % 0 mm 0.0 W/m2 CLR
06:42 -8.2 °C -11.5 °C 34669.3 hPa South 23.8 km/h 23.8 km/h 68 % 0 mm 0.0 W/m2 CLR
06:47 -8.2 °C -11.5 °C 34669.3 hPa South 9 km/h 9 km/h 68 % 0 mm 0.0 W/m2 CLR
06:52 -8.5 °C -11.8 °C 34669.3 hPa Calm     68 % 0 mm 0.0 W/m2 CLR
06:57 -8.5 °C -11.8 °C 34669.3 hPa South 15 km/h 15 km/h 68 % 0 mm 0.0 W/m2 CLR
07:02 -8.5 °C -11.7 °C 34669.3 hPa SSE 11.9 km/h 11.9 km/h 69 % 0 mm 0.0 W/m2 CLR
07:07 -8.8 °C -12 °C 34669.3 hPa South 20.9 km/h 20.9 km/h 69 % 0 mm 0.0 W/m2 CLR
07:12 -8.8 °C -12 °C 34669.3 hPa Calm     69 % 0 mm 0.0 W/m2 CLR
07:17 -8.8 °C -12 °C 34669.3 hPa South 2.6 km/h   69 % 0 mm 0.0 W/m2 CLR
07:22 -9.1 °C -12.3 °C 34669.3 hPa South 9 km/h   69 % 0 mm 0.0 W/m2 OVC
07:27 -9.1 °C -12.3 °C 34669.3 hPa Calm     69 % 0 mm 0.0 W/m2 OVC
07:32 -9.1 °C -12.2 °C 34682.8 hPa Calm     70 % 0 mm 5.0 W/m2 OVC
07:37 -9.4 °C -12.4 °C 34682.8 hPa SSE 12.9 km/h 12.9 km/h 70 % 0 mm 7.0 W/m2 BKN
07:42 -9.4 °C -12.4 °C 34682.8 hPa SSE 12.9 km/h 12.9 km/h 70 % 0 mm 11.0 W/m2 BKN
07:47 -9.4 °C -12.3 °C 34682.8 hPa Calm     71 % 0 mm 14.0 W/m2 BKN
07:52 -9.4 °C -12.3 °C 34682.8 hPa South 10.3 km/h 10.3 km/h 71 % 0 mm 18.0 W/m2 BKN
07:57 -9.4 °C -12.3 °C 34682.8 hPa South 23.8 km/h 23.8 km/h 71 % 0 mm 23.0 W/m2 BKN
08:02 -9.1 °C -12.2 °C 34682.8 hPa South 15 km/h 15 km/h 70 % 0 mm 33.0 W/m2 BKN
08:07 -8.8 °C -11.8 °C 34682.8 hPa South 11.9 km/h 11.9 km/h 71 % 0 mm 49.0 W/m2 BKN
08:12 -8.5 °C -11.6 °C 34682.8 hPa SSW 15 km/h 15 km/h 70 % 0 mm 62.0 W/m2 SCT
08:17 -8.2 °C -11.3 °C 34682.8 hPa SSW 15.6 km/h 15.6 km/h 70 % 0 mm 81.0 W/m2 FEW
08:22 -7.6 °C -10.9 °C 34682.8 hPa SSW 26.9 km/h 26.9 km/h 68 % 0 mm 102.0 W/m2 CLR
08:27 -7.6 °C -10.9 °C 34682.8 hPa SSW 23.8 km/h 23.8 km/h 68 % 0 mm 107.0 W/m2 CLR
08:32 -7.3 °C -10.7 °C 34682.8 hPa SSW 23.8 km/h 23.8 km/h 68 % 0 mm 118.0 W/m2 CLR
08:37 -7.3 °C -10.8 °C 34682.8 hPa SSW 29.8 km/h 29.8 km/h 67 % 0 mm 162.0 W/m2 CLR
08:42 -7 °C -10.4 °C 34693 hPa SSW 20.9 km/h 20.9 km/h 67 % 0 mm 98.0 W/m2 CLR
08:47 -6.7 °C -10.3 °C 34693 hPa SSW 20.9 km/h 20.9 km/h 66 % 0 mm 199.0 W/m2 CLR
08:52 -6.7 °C -10.4 °C 34693 hPa SSW 29.8 km/h 29.8 km/h 65 % 0 mm 237.0 W/m2 CLR
08:57 -6.7 °C -10.4 °C 34693 hPa South 33.6 km/h 33.6 km/h 65 % 0 mm 206.0 W/m2 CLR
09:07 -6.3 °C -10.2 °C 34693 hPa South 41.7 km/h 41.7 km/h 65 % 0 mm 165.0 W/m2 CLR
09:12 -6.3 °C -10 °C 34693 hPa South 35.7 km/h 35.7 km/h 66 % 0 mm 232.0 W/m2 CLR
09:17 -6.3 °C -10.2 °C 34693 hPa South 36.2 km/h 36.2 km/h 65 % 0 mm 272.0 W/m2 CLR
09:22 -6.3 °C -10.2 °C 34693 hPa SW 36.2 km/h 36.2 km/h 65 % 0 mm 304.0 W/m2 CLR
09:27 -6.3 °C -10.2 °C 34693 hPa SSW 38.8 km/h 38.8 km/h 65 % 0 mm 308.0 W/m2 CLR
09:32 -6.3 °C -10.2 °C 34693 hPa SSW 29.8 km/h 29.8 km/h 65 % 0 mm 322.0 W/m2 CLR
09:37 -6.3 °C -10.2 °C 34693 hPa South 28.5 km/h 28.5 km/h 65 % 0 mm 334.0 W/m2 CLR
09:42 -6.3 °C -10.2 °C 34693 hPa SSW 38.8 km/h 38.8 km/h 65 % 0 mm 346.0 W/m2 CLR
09:47 -6.3 °C -10.2 °C 34693 hPa South 38.8 km/h 38.8 km/h 65 % 0 mm 362.0 W/m2 CLR
09:52 -6.1 °C -9.8 °C 34693 hPa SSW 38.8 km/h 38.8 km/h 65 % 0 mm 374.0 W/m2 CLR
09:57 -6.1 °C -9.8 °C 34693 hPa SW 44.7 km/h 44.7 km/h 65 % 0 mm 385.0 W/m2 CLR
10:02 -6.1 °C -9.8 °C 34693 hPa SSW 35.7 km/h 35.7 km/h 65 % 0 mm 397.0 W/m2 CLR
10:07 -6.1 °C -9.9 °C 34693 hPa South 26.9 km/h 26.9 km/h 64 % 0 mm 410.0 W/m2 CLR
10:12 -6.1 °C -10.1 °C 34693 hPa SSW 41.7 km/h 41.7 km/h 63 % 0 mm 427.0 W/m2 CLR
10:17 -6.1 °C -10.1 °C 34693 hPa SSW 44.7 km/h 44.7 km/h 63 % 0 mm 441.0 W/m2 CLR
10:22 -5.7 °C -9.8 °C 34693 hPa WSW 38.8 km/h 38.8 km/h 63 % 0 mm 454.0 W/m2 CLR
10:28 -5.7 °C -9.9 °C 34693 hPa SSW 38.8 km/h 38.8 km/h 62 % 0 mm 466.0 W/m2 CLR
10:33 -5.7 °C -9.8 °C 34703.1 hPa SW 36.2 km/h 36.2 km/h 63 % 0 mm 482.0 W/m2 CLR
10:38 -5.7 °C -9.9 °C 34693 hPa SW 44.1 km/h 44.1 km/h 62 % 0 mm 494.0 W/m2 CLR
10:43 -5.7 °C -10.1 °C 34693 hPa WSW 32.8 km/h 32.8 km/h 61 % 0 mm 450.0 W/m2 CLR
10:48 -5.4 °C -9.8 °C 34693 hPa SW 47.6 km/h 47.6 km/h 61 % 0 mm 519.0 W/m2 CLR
10:53 -5.4 °C -9.8 °C 34693 hPa SSW 23.8 km/h 26.7 km/h 61 % 0 mm 533.0 W/m2 CLR
10:58 -5.4 °C -9.8 °C 34693 hPa South 29.8 km/h 29.8 km/h 61 % 0 mm 541.0 W/m2 CLR
11:03 -5.4 °C -9.9 °C 34693 hPa SSW 35.7 km/h 35.7 km/h 60 % 0 mm 557.0 W/m2 CLR
11:08 -5.1 °C -9.5 °C 34693 hPa SSW 36.2 km/h 36.2 km/h 61 % 0 mm 570.0 W/m2 CLR
11:13 -5.1 °C -9.7 °C 34693 hPa SSW 32.8 km/h 32.8 km/h 60 % 0 mm 582.0 W/m2 CLR
11:23 -4.8 °C -9.4 °C 34682.8 hPa South 46.7 km/h 46.7 km/h 60 % 0 mm 606.0 W/m2 CLR
11:28 -4.8 °C -9.5 °C 34693 hPa SSW 32.8 km/h 32.8 km/h 59 % 0 mm 615.0 W/m2 CLR
11:33 -4.8 °C -9.5 °C 34693 hPa South 38.8 km/h 38.8 km/h 59 % 0 mm 617.0 W/m2 CLR
11:38 -4.8 °C -9.5 °C 34682.8 hPa SW 41.7 km/h 41.7 km/h 59 % 0 mm 526.0 W/m2 CLR
11:43 -4.8 °C -9.7 °C 34682.8 hPa WSW 29.8 km/h 29.8 km/h 58 % 0 mm 633.0 W/m2 CLR
11:48 -4.8 °C -9.8 °C 34682.8 hPa SSW 36.2 km/h 36.2 km/h 57 % 0 mm 663.0 W/m2 CLR
11:53 -4.5 °C -9.6 °C 34682.8 hPa WSW 47.6 km/h 47.6 km/h 57 % 0 mm 666.0 W/m2 CLR
11:58 -4.2 °C -9.2 °C 34682.8 hPa SSW 32.8 km/h 32.8 km/h 57 % 0 mm 677.0 W/m2 CLR
12:03 -4.2 °C -9.4 °C 34669.3 hPa SW 41.7 km/h 41.7 km/h 56 % 0 mm 686.0 W/m2 CLR
12:08 -4.2 °C -9.6 °C 34669.3 hPa SW 29.8 km/h 29.8 km/h 55 % 0 mm 694.0 W/m2 CLR
12:13 -4.2 °C -9.4 °C 34669.3 hPa WSW 23.8 km/h 23.8 km/h 56 % 0 mm 700.0 W/m2 CLR
12:18 -3.9 °C -9.4 °C 34669.3 hPa South 29.8 km/h 29.8 km/h 54 % 0 mm 710.0 W/m2 CLR
12:23 -3.9 °C -9.4 °C 34669.3 hPa SSW 15 km/h 15 km/h 54 % 0 mm 717.0 W/m2 CLR
12:28 -3.9 °C -9.4 °C 34669.3 hPa WSW 31.1 km/h 31.1 km/h 54 % 0 mm 726.0 W/m2 CLR
12:38 -3.6 °C -9.3 °C 34669.3 hPa WSW 32.8 km/h 32.8 km/h 53 % 0 mm 738.0 W/m2 CLR
12:43 -3.6 °C -9.3 °C 34659.1 hPa SW 29.8 km/h 29.8 km/h 53 % 0 mm 747.0 W/m2 CLR
12:48 -3.6 °C -9.5 °C 34659.1 hPa SSW 15 km/h 15 km/h 52 % 0 mm 754.0 W/m2 CLR
12:53 -3.3 °C -9.2 °C 34659.1 hPa SW 29.8 km/h 29.8 km/h 52 % 0 mm 761.0 W/m2 CLR
12:58 -3.3 °C -9.5 °C 34659.1 hPa West 29.8 km/h 29.8 km/h 50 % 0 mm 763.0 W/m2 CLR
13:08 -2.9 °C -9.1 °C 34659.1 hPa SW 41.7 km/h 41.7 km/h 51 % 0 mm 775.0 W/m2 CLR
13:13 -2.9 °C -9.2 °C 34645.6 hPa SSW 38.8 km/h 38.8 km/h 50 % 0 mm 782.0 W/m2 CLR
13:18 -2.9 °C -9.2 °C 34645.6 hPa SW 29.8 km/h 29.8 km/h 50 % 0 mm 782.0 W/m2 CLR
13:23 -2.9 °C -9.1 °C 34645.6 hPa WSW 7.7 km/h 7.7 km/h 51 % 0 mm 768.0 W/m2 CLR
13:33 -2.7 °C -9.1 °C 34645.6 hPa SSE 26.9 km/h 26.9 km/h 49 % 0 mm 786.0 W/m2 CLR
13:38 -2.7 °C -9.3 °C 34635.4 hPa South 17.9 km/h 17.9 km/h 48 % 0 mm 784.0 W/m2 CLR
13:43 -2.7 °C -9.1 °C 34635.4 hPa WSW 10.3 km/h 10.3 km/h 49 % 0 mm 782.0 W/m2 CLR
13:44 -2.7 °C -9.3 °C 34635.4 hPa SSW 38.8 km/h 38.8 km/h 48 % 0 mm 780.0 W/m2 CLR
13:49 -2.7 °C -9.3 °C 34635.4 hPa West 29.8 km/h 29.8 km/h 48 % 0 mm 780.0 W/m2 CLR
13:54 -2.7 °C -9.3 °C 34635.4 hPa West 29.8 km/h 29.8 km/h 48 % 0 mm 782.0 W/m2 CLR
13:59 -2.7 °C -9.3 °C 34635.4 hPa Calm   0.8 km/h 48 % 0 mm 784.0 W/m2 CLR
14:04 -2.3 °C -9.4 °C 34635.4 hPa West 29.8 km/h 29.8 km/h 46 % 0 mm 782.0 W/m2 CLR
14:09 -2.7 °C -9.7 °C 34625.2 hPa WSW 47.6 km/h 47.6 km/h 46 % 0 mm 784.0 W/m2 CLR
14:14 -2.3 °C -9.2 °C 34625.2 hPa SW 29.8 km/h 29.8 km/h 47 % 0 mm 786.0 W/m2 CLR
14:19 -2.3 °C -9.2 °C 34625.2 hPa Calm     47 % 0 mm 788.0 W/m2 CLR
14:24 -2.1 °C -9.1 °C 34625.2 hPa WSW 32.8 km/h 32.8 km/h 46 % 0 mm 786.0 W/m2 CLR
14:25 -2.1 °C -9.3 °C 34625.2 hPa WNW 32.8 km/h 32.8 km/h 45 % 0 mm 786.0 W/m2 CLR
14:30 -2.3 °C -9.6 °C 34625.2 hPa SW 29.8 km/h 29.8 km/h 45 % 0 mm 782.0 W/m2 CLR
14:35 -2.3 °C -9.8 °C 34611.7 hPa SSW 29.8 km/h 29.8 km/h 44 % 0 mm 779.0 W/m2 CLR
14:40 -2.1 °C -9.5 °C 34611.7 hPa West 9 km/h 9 km/h 44 % 0 mm 773.0 W/m2 CLR
14:45 -2.1 °C -9.5 °C 34611.7 hPa South 18.2 km/h 18.2 km/h 44 % 0 mm 772.0 W/m2 CLR
14:50 -2.1 °C -9.7 °C 34611.7 hPa West 29.8 km/h 29.8 km/h 43 % 0 mm 765.0 W/m2 CLR
14:55 -1.7 °C -9.4 °C 34611.7 hPa SW 29.8 km/h 29.8 km/h 43 % 0 mm 765.0 W/m2 CLR
15:00 -2.1 °C -9.3 °C 34601.5 hPa West 33.6 km/h 33.6 km/h 45 % 0 mm 758.0 W/m2 CLR
15:05 -2.1 °C -9.3 °C 34601.5 hPa WSW 36.2 km/h 36.2 km/h 45 % 0 mm 752.0 W/m2 CLR
15:06 -2.1 °C -9.5 °C 34601.5 hPa WSW 35.7 km/h 35.7 km/h 44 % 0 mm 751.0 W/m2 CLR
15:11 -2.1 °C -9.5 °C 34601.5 hPa WSW 20.9 km/h 20.9 km/h 44 % 0 mm 742.0 W/m2 CLR
15:16 -2.1 °C -9.9 °C 34601.5 hPa West 20.9 km/h 20.9 km/h 42 % 0 mm 738.0 W/m2 CLR
15:21 -2.1 °C -9.9 °C 34601.5 hPa WSW 26.9 km/h 26.9 km/h 42 % 0 mm 735.0 W/m2 CLR
15:22 -2.1 °C -9.7 °C 34601.5 hPa WSW 26.9 km/h 26.9 km/h 43 % 0 mm 735.0 W/m2 CLR
15:27 -1.7 °C -9.6 °C 34601.5 hPa WSW 18.2 km/h 18.2 km/h 42 % 0 mm 728.0 W/m2 CLR
15:32 -1.7 °C -9.6 °C 34591.4 hPa WSW 9 km/h 9 km/h 42 % 0 mm 717.0 W/m2 CLR
15:37 -2.1 °C -9.7 °C 34591.4 hPa West 29.8 km/h 29.8 km/h 43 % 0 mm 708.0 W/m2 CLR
15:42 -1.7 °C -9.6 °C 34591.4 hPa WSW 32.8 km/h 32.8 km/h 42 % 0 mm 703.0 W/m2 CLR
15:47 -2.1 °C -9.9 °C 34591.4 hPa WSW 29.8 km/h 29.8 km/h 42 % 0 mm 694.0 W/m2 CLR
15:52 -2.1 °C -9.9 °C 34591.4 hPa SW 29.8 km/h 29.8 km/h 42 % 0 mm 686.0 W/m2 CLR
15:57 -2.1 °C -9.9 °C 34591.4 hPa West 25.9 km/h 25.9 km/h 42 % 0 mm 675.0 W/m2 CLR
16:02 -2.1 °C -10.1 °C 34577.8 hPa West 41.7 km/h 41.7 km/h 41 % 0 mm 666.0 W/m2 CLR
16:07 -1.7 °C -9.8 °C 34577.8 hPa WSW 28.5 km/h 28.5 km/h 41 % 0 mm 661.0 W/m2 CLR
16:12 -1.7 °C -10.1 °C 34577.8 hPa SSW 9 km/h 9 km/h 40 % 0 mm 645.0 W/m2 CLR
16:17 -1.4 °C -9.8 °C 34577.8 hPa WSW 15.6 km/h 15.6 km/h 40 % 0 mm 636.0 W/m2 CLR
16:22 -1.4 °C -9.8 °C 34567.7 hPa SW 38.8 km/h 38.8 km/h 40 % 0 mm 626.0 W/m2 CLR
16:27 -1.7 °C -10.1 °C 34567.7 hPa West 38.8 km/h 38.8 km/h 40 % 0 mm 621.0 W/m2 CLR
16:32 -1.7 °C -10.1 °C 34567.7 hPa SSW 31.1 km/h 31.1 km/h 40 % 0 mm 606.0 W/m2 CLR
16:37 -1.7 °C -10.2 °C 34567.7 hPa West 32.8 km/h 32.8 km/h 39 % 0 mm 592.0 W/m2 CLR
16:42 -1.7 °C -10.1 °C 34567.7 hPa WNW 25.9 km/h 25.9 km/h 40 % 0 mm 580.0 W/m2 CLR
16:47 -1.7 °C -10.1 °C 34554.1 hPa SW 32.8 km/h 32.8 km/h 40 % 0 mm 575.0 W/m2 CLR
16:52 -1.7 °C -10.1 °C 34554.1 hPa Calm     40 % 0 mm 555.0 W/m2 CLR
16:57 -1.7 °C -10.1 °C 34554.1 hPa West 35.7 km/h 35.7 km/h 40 % 0 mm 543.0 W/m2 CLR
17:07 -1.4 °C -9.8 °C 34554.1 hPa SW 28.5 km/h 28.5 km/h 40 % 0 mm 510.0 W/m2 CLR
17:09 -1.7 °C -10.1 °C 34554.1 hPa WSW 29.8 km/h 29.8 km/h 40 % 0 mm 508.0 W/m2 CLR
17:14 -1.4 °C -9.8 °C 34544 hPa WSW 28.5 km/h 28.5 km/h 40 % 0 mm 492.0 W/m2 CLR
17:19 -1.4 °C -9.8 °C 34544 hPa SW 26.9 km/h 26.9 km/h 40 % 0 mm 482.0 W/m2 CLR
17:24 -1.4 °C -9.8 °C 34544 hPa South 23.8 km/h   40 % 0 mm 464.0 W/m2 CLR
17:29 -1.4 °C -9.8 °C 34544 hPa Calm     40 % 0 mm 450.0 W/m2 CLR
17:34 -1.4 °C -9.6 °C 34544 hPa SW 20.9 km/h 20.9 km/h 41 % 0 mm 438.0 W/m2 CLR
17:44 -1.4 °C -9.8 °C 34544 hPa WSW 29.8 km/h 29.8 km/h 40 % 0 mm 406.0 W/m2 CLR
17:49 -1.7 °C -10.1 °C 34533.8 hPa WSW 11.9 km/h 11.9 km/h 40 % 0 mm 392.0 W/m2 CLR
17:54 -2.1 °C -10.3 °C 34533.8 hPa SW 9 km/h 9 km/h 40 % 0 mm 376.0 W/m2 CLR
17:59 -2.1 °C -10.3 °C 34533.8 hPa Calm     40 % 0 mm 362.0 W/m2 CLR
18:04 -1.7 °C -9.8 °C 34533.8 hPa West 9 km/h 9 km/h 41 % 0 mm 345.0 W/m2 CLR
18:09 -1.7 °C -9.8 °C 34533.8 hPa SSW 11.9 km/h 11.9 km/h 41 % 0 mm 332.0 W/m2 CLR
18:14 -2.1 °C -10.1 °C 34533.8 hPa WSW 29.8 km/h 29.8 km/h 41 % 0 mm 316.0 W/m2 CLR
18:19 -2.1 °C -9.9 °C 34533.8 hPa West 15.6 km/h 15.6 km/h 42 % 0 mm 302.0 W/m2 CLR
18:24 -2.1 °C -9.9 °C 34533.8 hPa WSW 38.8 km/h 38.8 km/h 42 % 0 mm 292.0 W/m2 CLR
18:25 -2.1 °C -10.1 °C 34533.8 hPa West 38.8 km/h 38.8 km/h 41 % 0 mm 281.0 W/m2 CLR
18:30 -2.1 °C -9.7 °C 34533.8 hPa WSW 29.8 km/h 29.8 km/h 43 % 0 mm 269.0 W/m2 CLR
18:35 -2.1 °C -9.7 °C 34533.8 hPa WSW 38.8 km/h 38.8 km/h 43 % 0 mm 253.0 W/m2 CLR
18:40 -2.1 °C -9.7 °C 34533.8 hPa SW 35.7 km/h 35.7 km/h 43 % 0 mm 237.0 W/m2 CLR
18:45 -2.3 °C -9.9 °C 34533.8 hPa SW 29.8 km/h 29.8 km/h 43 % 0 mm 227.0 W/m2 CLR
18:50 -2.3 °C -9.9 °C 34533.8 hPa SW 41.7 km/h 41.7 km/h 43 % 0 mm 209.0 W/m2 CLR
18:56 -2.3 °C -9.9 °C 34533.8 hPa WSW 44.7 km/h 44.7 km/h 43 % 0 mm 193.0 W/m2 CLR
19:01 -2.7 °C -10.2 °C 34533.8 hPa WSW 29.8 km/h 29.8 km/h 43 % 0 mm 174.0 W/m2 CLR
19:06 -2.7 °C -10.2 °C 34544 hPa West 36.2 km/h 36.2 km/h 43 % 0 mm 158.0 W/m2 CLR
19:11 -2.7 °C -10.1 °C 34544 hPa WSW 38.8 km/h 38.8 km/h 44 % 0 mm 142.0 W/m2 CLR
19:16 -2.9 °C -10.3 °C 34544 hPa SW 44.7 km/h 44.7 km/h 44 % 0 mm 127.0 W/m2 CLR
19:21 -2.9 °C -10.3 °C 34544 hPa WSW 47.6 km/h 47.6 km/h 44 % 0 mm 109.0 W/m2 CLR
19:26 -2.9 °C -10.2 °C 34544 hPa West 35.7 km/h 35.7 km/h 45 % 0 mm 95.0 W/m2 CLR
19:31 -2.9 °C -10.2 °C 34544 hPa WSW 47.6 km/h 47.6 km/h 45 % 0 mm 83.0 W/m2 FEW
19:36 -3.3 °C -10.4 °C 34533.8 hPa West 29.8 km/h 29.8 km/h 45 % 0 mm 70.0 W/m2 FEW
19:41 -3.3 °C -10.6 °C 34544 hPa WSW 50.7 km/h 50.7 km/h 44 % 0 mm 53.0 W/m2 SCT
19:46 -3.3 °C -10.6 °C 34544 hPa WSW 50.7 km/h 50.7 km/h 44 % 0 mm 46.0 W/m2 SCT
19:51 -3.6 °C -10.9 °C 34544 hPa WSW 35.7 km/h 36.2 km/h 44 % 0 mm 37.0 W/m2 BKN
19:56 -3.6 °C -10.9 °C 34544 hPa WSW 41.7 km/h 41.7 km/h 44 % 0 mm 30.0 W/m2 BKN
20:01 -3.9 °C -11.2 °C 34544 hPa WSW 32.8 km/h 32.8 km/h 44 % 0 mm 25.0 W/m2 BKN
20:06 -3.9 °C -11.2 °C 34544 hPa WSW 35.7 km/h 35.7 km/h 44 % 0 mm 18.0 W/m2 BKN
20:11 -3.9 °C -11 °C 34554.1 hPa WSW 51.8 km/h 51.8 km/h 45 % 0 mm 14.0 W/m2 BKN
20:12 -3.9 °C -11 °C 34554.1 hPa WSW 41.7 km/h 41.7 km/h 45 % 0 mm 14.0 W/m2 BKN
20:17 -4.2 °C -11.3 °C 34554.1 hPa WSW 41.7 km/h 41.7 km/h 45 % 0 mm 9.0 W/m2 BKN
20:22 -4.2 °C -11.3 °C 34554.1 hPa SW 41.7 km/h 41.7 km/h 45 % 0 mm 5.0 W/m2 BKN
20:27 -4.2 °C -11.1 °C 34554.1 hPa WSW 31.1 km/h 31.1 km/h 46 % 0 mm 0.0 W/m2 OVC
20:32 -4.2 °C -11.1 °C 34554.1 hPa SW 47.6 km/h 47.6 km/h 46 % 0 mm 0.0 W/m2 OVC
20:37 -4.5 °C -11.2 °C 34554.1 hPa WSW 44.7 km/h 44.7 km/h 47 % 0 mm 0.0 W/m2 CLR
20:42 -4.5 °C -11 °C 34567.7 hPa WSW 62.6 km/h 62.6 km/h 48 % 0 mm 0.0 W/m2 CLR
20:47 -4.5 °C -10.8 °C 34567.7 hPa SW 53.6 km/h 53.6 km/h 49 % 0 mm 0.0 W/m2 CLR
20:52 -4.8 °C -11.1 °C 34567.7 hPa SW 50.7 km/h 50.7 km/h 49 % 0 mm 0.0 W/m2 CLR
20:57 -4.8 °C -11.1 °C 34567.7 hPa WSW 50.7 km/h 50.7 km/h 49 % 0 mm 0.0 W/m2 CLR
21:02 -4.8 °C -10.9 °C 34577.8 hPa WSW 57 km/h 57 km/h 50 % 0 mm 0.0 W/m2 CLR
21:07 -5.1 °C -11.2 °C 34577.8 hPa WSW 56.6 km/h 56.6 km/h 50 % 0 mm 0.0 W/m2 CLR
21:12 -5.1 °C -11.1 °C 34577.8 hPa WSW 47.6 km/h 47.6 km/h 51 % 0 mm 0.0 W/m2 CLR
21:17 -5.4 °C -11 °C 34591.4 hPa WSW 51.8 km/h 51.8 km/h 53 % 0 mm 0.0 W/m2 CLR
21:22 -5.4 °C -11 °C 34591.4 hPa WSW 41.7 km/h 41.7 km/h 53 % 0 mm 0.0 W/m2 CLR
21:27 -5.4 °C -10.9 °C 34601.5 hPa SSW 41.7 km/h 41.7 km/h 54 % 0 mm 0.0 W/m2 CLR
21:32 -5.7 °C -11.2 °C 34601.5 hPa WSW 44.7 km/h 44.7 km/h 54 % 0 mm 0.0 W/m2 CLR
21:37 -5.7 °C -11 °C 34601.5 hPa WSW 50.7 km/h 50.7 km/h 55 % 0 mm 0.0 W/m2 CLR
21:42 -5.7 °C -11 °C 34601.5 hPa WSW 29.8 km/h 29.8 km/h 55 % 0 mm 0.0 W/m2 CLR
21:47 -5.7 °C -11 °C 34611.7 hPa SSW 65.5 km/h 65.5 km/h 55 % 0 mm 0.0 W/m2 CLR
21:52 -5.7 °C -11 °C 34611.7 hPa SW 56.6 km/h 56.6 km/h 55 % 0 mm 0.0 W/m2 CLR
21:57 -5.7 °C -11 °C 34611.7 hPa SW 38.8 km/h 38.8 km/h 55 % 0 mm 0.0 W/m2 CLR
22:02 -6.1 °C -11.3 °C 34611.7 hPa WSW 44.7 km/h 44.7 km/h 55 % 0 mm 0.0 W/m2 CLR
22:07 -6.1 °C -11.3 °C 34611.7 hPa SW 56.6 km/h 56.6 km/h 55 % 0 mm 0.0 W/m2 CLR
22:12 -6.1 °C -11.3 °C 34611.7 hPa WSW 50.7 km/h 50.7 km/h 55 % 0 mm 0.0 W/m2 CLR
22:17 -6.1 °C -11.3 °C 34625.2 hPa SW 62.6 km/h 62.6 km/h 55 % 0 mm 0.0 W/m2 CLR
22:22 -6.3 °C -11.6 °C 34625.2 hPa SW 44.7 km/h 44.7 km/h 55 % 0 mm 0.0 W/m2 CLR
22:27 -6.3 °C -11.4 °C 34625.2 hPa SSW 35.7 km/h 35.7 km/h 56 % 0 mm 0.0 W/m2 CLR
22:32 -6.3 °C -11.4 °C 34625.2 hPa SSE 38.8 km/h 38.8 km/h 56 % 0 mm 0.0 W/m2 CLR
22:37 -6.3 °C -11.4 °C 34625.2 hPa SSW 41.4 km/h 41.4 km/h 56 % 0 mm 0.0 W/m2 CLR
22:42 -6.3 °C -11.4 °C 34625.2 hPa SSE 44.7 km/h 44.7 km/h 56 % 0 mm 0.0 W/m2 CLR
22:47 -6.3 °C -11.4 °C 34625.2 hPa SSW 38.8 km/h 38.8 km/h 56 % 0 mm 0.0 W/m2 CLR
22:52 -6.7 °C -11.7 °C 34635.4 hPa SSW 10.3 km/h 10.3 km/h 56 % 0 mm 0.0 W/m2 CLR
22:57 -6.7 °C -11.7 °C 34635.4 hPa SSW 26.9 km/h 26.9 km/h 56 % 0 mm 0.0 W/m2 CLR
23:02 -6.7 °C -11.7 °C 34635.4 hPa SSW 32.8 km/h 32.8 km/h 56 % 0 mm 0.0 W/m2 CLR
23:07 -6.7 °C -11.7 °C 34635.4 hPa Calm   3.7 km/h 56 % 0 mm 0.0 W/m2 CLR
23:12 -7 °C -12 °C 34635.4 hPa South 35.7 km/h 35.7 km/h 56 % 0 mm 0.0 W/m2 CLR
23:17 -7 °C -11.8 °C 34645.6 hPa SSW 26.9 km/h 26.9 km/h 57 % 0 mm 0.0 W/m2 CLR
23:22 -7 °C -11.8 °C 34645.6 hPa SSW 23.8 km/h 23.8 km/h 57 % 0 mm 0.0 W/m2 CLR
23:27 -7 °C -11.8 °C 34645.6 hPa SSW 9 km/h 9 km/h 57 % 0 mm 0.0 W/m2 CLR
23:32 -7 °C -11.8 °C 34645.6 hPa SSW 10.3 km/h 10.3 km/h 57 % 0 mm 0.0 W/m2 CLR
23:37 -7.3 °C -12 °C 34645.6 hPa SSW 32.8 km/h 32.8 km/h 58 % 0 mm 0.0 W/m2 CLR
23:42 -7.3 °C -12 °C 34645.6 hPa SSW 36.2 km/h 36.2 km/h 58 % 0 mm 0.0 W/m2 CLR
23:47 -7.3 °C -12 °C 34645.6 hPa SSW 32.8 km/h 32.8 km/h 58 % 0 mm 0.0 W/m2 CLR
23:52 -7.3 °C -11.8 °C 34645.6 hPa South 26.9 km/h 26.9 km/h 59 % 0 mm 0.0 W/m2 CLR
23:57 -7.3 °C -11.8 °C 34645.6 hPa SW 32.8 km/h 32.8 km/h 59 % 0 mm 0.0 W/m2 CLR
Lo Temps de Massalio
Compliments of Weather Underground - 1.25 mb